Time;durP1;ratioP1;P1;durP2;ratioP2;P2;SDS_P1;SDS_P2;PMS_P1;PMS_P2;Temp;Humidity;BMP_temperature;BMP_pressure;BME280_temperature;BME280_humidity;BME280_pressure;Samples;Min_cycle;Max_cycle;Signal;HPM_P1;HPM_P2
2021/05/21 00:01:51;;;;;;;23.83;5.28;;;;;;;11.43;70.22;100819.84;4997256;28;20536;-72
2021/05/21 00:04:19;;;;;;;19.40;4.18;;;;;;;11.47;70.42;100805.44;4999955;28;20138;-72
2021/05/21 00:06:46;;;;;;;16.42;3.95;;;;;;;11.48;69.75;100796.50;4998226;28;20157;-72
2021/05/21 00:09:14;;;;;;;19.92;4.53;;;;;;;11.49;70.29;100806.28;4999623;28;20062;-72
2021/05/21 00:11:41;;;;;;;22.05;4.20;;;;;;;11.50;70.17;100813.34;5002090;28;20080;-72
2021/05/21 00:14:08;;;;;;;18.13;4.55;;;;;;;11.52;70.20;100805.28;4998837;28;20072;-72
2021/05/21 00:16:36;;;;;;;23.67;3.97;;;;;;;11.51;69.48;100807.09;4997656;28;20061;-72
2021/05/21 00:19:04;;;;;;;20.65;4.32;;;;;;;11.52;66.55;100798.13;4999241;28;20322;-72
2021/05/21 00:21:31;;;;;;;19.98;3.72;;;;;;;11.47;66.44;100801.91;4999136;28;20054;-72
2021/05/21 00:23:59;;;;;;;19.15;4.97;;;;;;;11.41;66.36;100803.00;4996697;28;20058;-72
2021/05/21 00:26:27;;;;;;;19.48;4.18;;;;;;;11.40;65.46;100788.75;5000277;28;20069;-72
2021/05/21 00:28:56;;;;;;;20.02;4.10;;;;;;;11.35;66.03;100805.88;4996169;28;20104;-73
2021/05/21 00:31:23;;;;;;;17.08;6.22;;;;;;;11.35;66.31;100803.22;4999808;28;20058;-73
2021/05/21 00:33:51;;;;;;;21.23;3.88;;;;;;;11.23;66.52;100774.28;5001578;28;20058;-73
2021/05/21 00:36:19;;;;;;;20.17;4.05;;;;;;;11.10;67.15;100781.84;5000330;28;20427;-72
2021/05/21 00:38:46;;;;;;;26.08;4.72;;;;;;;11.01;67.16;100773.22;4998089;28;20515;-72
2021/05/21 00:41:13;;;;;;;17.77;3.50;;;;;;;10.92;69.09;100764.69;4997357;28;20383;-72
2021/05/21 00:43:40;;;;;;;20.58;4.18;;;;;;;10.81;71.18;100771.25;4997246;28;20065;-73
2021/05/21 00:46:08;;;;;;;23.88;4.40;;;;;;;10.64;72.19;100765.59;4997251;28;20116;-73
2021/05/21 00:48:35;;;;;;;21.42;4.35;;;;;;;10.51;73.98;100773.16;4998294;28;20061;-72
2021/05/21 00:51:03;;;;;;;24.15;4.60;;;;;;;10.51;75.66;100772.28;4994350;28;20180;-73
2021/05/21 00:53:31;;;;;;;26.15;4.53;;;;;;;10.41;76.27;100772.56;4997162;28;20073;-73
2021/05/21 00:56:00;;;;;;;19.88;4.97;;;;;;;10.33;77.35;100763.94;4997400;28;20066;-72
2021/05/21 00:58:28;;;;;;;24.65;5.50;;;;;;;10.28;78.94;100753.41;4996542;28;20061;-72
2021/05/21 01:00:55;;;;;;;33.97;6.10;;;;;;;10.17;78.35;100744.88;4998652;28;20108;-72
2021/05/21 01:03:24;;;;;;;28.55;5.82;;;;;;;10.16;78.37;100735.13;4994780;28;20061;-74
2021/05/21 01:05:51;;;;;;;32.53;5.68;;;;;;;10.21;78.30;100737.66;4999380;28;20374;-73
2021/05/21 01:08:20;;;;;;;29.85;4.95;;;;;;;10.26;78.19;100725.03;4995635;28;20058;-72
2021/05/21 01:11:03;;;;;;;18.80;5.25;;;;;;;10.21;78.00;100713.66;4999013;28;20081;-72
2021/05/21 01:13:31;;;;;;;20.17;5.35;;;;;;;10.20;79.03;100712.78;4995829;28;20492;-73
2021/05/21 01:16:00;;;;;;;26.52;6.28;;;;;;;10.21;78.65;100695.84;4996779;28;20507;-72
2021/05/21 01:18:27;;;;;;;25.15;5.07;;;;;;;10.25;78.54;100699.31;4995038;28;20061;-73
2021/05/21 01:20:56;;;;;;;23.65;5.63;;;;;;;10.28;78.58;100701.84;5000166;28;20058;-72
2021/05/21 01:23:24;;;;;;;24.23;5.13;;;;;;;10.27;78.78;100689.47;4994562;28;20261;-73
2021/05/21 01:25:52;;;;;;;24.15;4.78;;;;;;;10.32;78.15;100694.66;5001060;28;20069;-73
2021/05/21 01:28:20;;;;;;;30.45;5.25;;;;;;;10.33;77.72;100683.94;4995519;28;20755;-75
2021/05/21 01:30:47;;;;;;;23.65;6.75;;;;;;;10.41;77.43;100676.56;4997014;28;20066;-75
2021/05/21 01:33:15;;;;;;;24.45;6.05;;;;;;;10.40;77.87;100679.25;4998526;28;20058;-74
2021/05/21 01:35:42;;;;;;;32.83;6.22;;;;;;;10.42;76.87;100669.41;4995638;28;20170;-74
2021/05/21 01:38:12;;;;;;;26.23;5.00;;;;;;;10.42;76.72;100664.97;4996850;28;20069;-75
2021/05/21 01:40:40;;;;;;;25.20;4.80;;;;;;;10.42;76.31;100656.97;4993751;28;20176;-75
2021/05/21 01:43:11;;;;;;;24.45;5.38;;;;;;;10.42;76.99;100667.63;4998435;28;20127;-76
2021/05/21 01:45:39;;;;;;;27.55;6.32;;;;;;;10.37;76.50;100658.03;4995489;28;20445;-76
2021/05/21 01:48:08;;;;;;;28.80;5.75;;;;;;;10.39;76.43;100664.22;4998768;28;20092;-76
2021/05/21 01:50:36;;;;;;;31.50;6.35;;;;;;;10.38;75.61;100655.31;4995079;28;20107;-75
2021/05/21 01:53:04;;;;;;;27.55;5.63;;;;;;;10.35;75.79;100654.53;5000102;28;20066;-77
2021/05/21 01:55:32;;;;;;;24.33;5.68;;;;;;;10.28;76.05;100649.41;4992778;28;20058;-75
2021/05/21 01:58:00;;;;;;;22.73;5.55;;;;;;;10.26;76.14;100640.56;4999618;28;20056;-75
2021/05/21 02:00:27;;;;;;;22.05;5.05;;;;;;;10.22;76.21;100646.06;4995105;28;20457;-76
2021/05/21 02:02:55;;;;;;;25.20;5.32;;;;;;;10.21;76.56;100649.66;4999638;28;20089;-75
2021/05/21 02:05:23;;;;;;;34.35;6.05;;;;;;;10.18;76.35;100644.41;4995942;28;20062;-75
2021/05/21 02:07:50;;;;;;;25.55;5.32;;;;;;;10.10;77.00;100634.88;4998436;28;20066;-75
2021/05/21 02:10:18;;;;;;;19.75;4.65;;;;;;;10.17;75.90;100630.22;4995259;28;20049;-75
2021/05/21 02:12:46;;;;;;;33.95;6.47;;;;;;;10.18;75.69;100637.31;4998806;28;20064;-75
2021/05/21 02:15:15;;;;;;;31.63;6.35;;;;;;;10.16;76.17;100636.47;4995283;28;20097;-74
2021/05/21 02:17:42;;;;;;;24.90;5.10;;;;;;;10.20;75.52;100632.78;4996427;28;20148;-76
2021/05/21 02:20:12;;;;;;;32.20;5.32;;;;;;;10.12;76.29;100632.16;4996438;28;20050;-74
2021/05/21 02:22:40;;;;;;;24.23;5.43;;;;;;;10.16;75.50;100620.47;4994811;28;20160;-74
2021/05/21 02:25:10;;;;;;;27.38;5.55;;;;;;;10.13;75.60;100609.03;4995255;28;20370;-74
2021/05/21 02:27:38;;;;;;;24.90;4.88;;;;;;;10.09;75.90;100614.47;4995772;28;20068;-73
2021/05/21 02:30:09;;;;;;;24.55;5.65;;;;;;;10.06;76.17;100614.59;4995036;28;20062;-74
2021/05/21 02:32:37;;;;;;;29.08;4.40;;;;;;;10.05;75.87;100615.50;4994469;28;20065;-74
2021/05/21 02:35:05;;;;;;;30.90;5.45;;;;;;;10.05;75.51;100614.66;4995162;28;20061;-73
2021/05/21 02:37:33;;;;;;;30.77;6.15;;;;;;;10.04;75.74;100607.56;4998611;28;20461;-73
2021/05/21 02:40:00;;;;;;;30.90;5.43;;;;;;;9.99;76.29;100607.69;4990373;28;20065;-74
2021/05/21 02:42:27;;;;;;;20.38;5.18;;;;;;;9.97;75.90;100614.03;5001560;28;20112;-73
2021/05/21 02:44:55;;;;;;;24.15;5.30;;;;;;;9.87;76.84;100610.78;4991006;28;20155;-73
2021/05/21 02:47:24;;;;;;;29.67;6.25;;;;;;;9.93;76.67;100602.59;4998257;28;20064;-73
2021/05/21 02:49:51;;;;;;;16.05;4.75;;;;;;;9.96;76.19;100615.81;4992017;28;20057;-73
2021/05/21 02:52:18;;;;;;;29.83;7.32;;;;;;;9.94;76.04;100606.13;4998877;28;20050;-73
2021/05/21 02:54:45;;;;;;;32.20;4.75;;;;;;;9.88;76.49;100609.88;4992858;28;20153;-73
2021/05/21 02:57:13;;;;;;;28.48;5.57;;;;;;;9.88;76.32;100594.75;4998688;28;20062;-72
2021/05/21 02:59:40;;;;;;;44.17;6.20;;;;;;;10.00;74.91;100592.59;4994477;28;20058;-73
2021/05/21 03:02:07;;;;;;;18.90;5.43;;;;;;;9.94;75.45;100606.13;4993850;28;20066;-73
2021/05/21 03:04:35;;;;;;;33.58;4.60;;;;;;;9.91;74.93;100591.97;4994915;28;20066;-73
2021/05/21 03:07:02;;;;;;;21.75;5.03;;;;;;;9.91;74.55;100586.66;4999716;28;20104;-73
2021/05/21 03:09:30;;;;;;;19.00;4.40;;;;;;;9.89;74.58;100588.50;4998350;28;20064;-73
2021/05/21 03:11:57;;;;;;;26.42;5.38;;;;;;;9.94;73.82;100585.66;4999312;28;20101;-73
2021/05/21 03:14:25;;;;;;;26.42;5.65;;;;;;;10.03;72.96;100584.50;5001233;28;20426;-73
2021/05/21 03:16:52;;;;;;;24.00;4.88;;;;;;;9.94;73.43;100591.00;4997253;28;20088;-74
2021/05/21 03:19:19;;;;;;;18.60;4.78;;;;;;;9.92;73.98;100587.50;4998649;28;20507;-73
2021/05/21 03:21:47;;;;;;;23.98;4.93;;;;;;;9.97;73.54;100590.03;5000220;28;20058;-73
2021/05/21 03:24:15;;;;;;;21.95;4.47;;;;;;;9.95;73.75;100582.09;5000281;28;20062;-73
2021/05/21 03:26:42;;;;;;;22.02;5.00;;;;;;;9.93;73.60;100577.72;5002727;28;20061;-74
2021/05/21 03:29:09;;;;;;;26.25;5.65;;;;;;;9.99;73.31;100573.06;4999699;28;20061;-72
2021/05/21 03:31:37;;;;;;;29.73;6.70;;;;;;;9.89;73.95;100564.50;5001855;28;20364;-73
2021/05/21 03:34:04;;;;;;;22.02;4.97;;;;;;;9.89;74.36;100560.97;4996699;28;20167;-72
2021/05/21 03:36:31;;;;;;;22.80;5.60;;;;;;;9.98;74.13;100560.66;5002925;28;20072;-73
2021/05/21 03:39:00;;;;;;;36.08;5.85;;;;;;;9.95;74.40;100551.91;4997527;28;20322;-71
2021/05/21 03:41:28;;;;;;;23.88;4.85;;;;;;;9.98;74.92;100554.47;4999733;28;20547;-72
2021/05/21 03:43:55;;;;;;;21.30;5.47;;;;;;;10.00;74.76;100555.28;4998422;28;20291;-74
2021/05/21 03:46:23;;;;;;;21.50;3.50;;;;;;;10.07;74.05;100549.66;4998087;28;20088;-72
2021/05/21 03:48:50;;;;;;;22.85;4.63;;;;;;;10.04;74.43;100539.09;5000178;28;20164;-73
2021/05/21 03:51:18;;;;;;;18.73;5.13;;;;;;;10.01;74.89;100533.03;4998066;28;20058;-73
2021/05/21 03:53:45;;;;;;;27.38;6.30;;;;;;;10.02;74.45;100527.63;5000035;28;20352;-74
2021/05/21 03:56:13;;;;;;;22.15;6.22;;;;;;;10.02;74.41;100534.78;4999927;28;20368;-74
2021/05/21 03:58:41;;;;;;;24.65;5.05;;;;;;;10.04;74.73;100533.78;4999704;28;20065;-74
2021/05/21 04:01:08;;;;;;;22.13;5.13;;;;;;;10.08;73.78;100524.78;4994009;28;20053;-73
2021/05/21 04:03:36;;;;;;;28.08;5.93;;;;;;;10.05;74.10;100518.69;4997773;28;20547;-73
2021/05/21 04:06:03;;;;;;;19.88;4.18;;;;;;;10.10;73.67;100520.25;4995293;28;20062;-73
2021/05/21 04:08:32;;;;;;;24.05;4.53;;;;;;;10.10;73.87;100524.72;5001148;28;20061;-74
2021/05/21 04:11:00;;;;;;;21.88;5.13;;;;;;;10.21;72.71;100517.19;4997086;28;20203;-71
2021/05/21 04:13:28;;;;;;;24.80;4.97;;;;;;;10.24;72.75;100514.41;4997344;28;20152;-71
2021/05/21 04:15:55;;;;;;;23.52;5.20;;;;;;;10.27;72.52;100505.44;4999536;28;20066;-71
2021/05/21 04:18:23;;;;;;;25.08;5.15;;;;;;;10.28;71.73;100505.41;4997655;28;20481;-72
2021/05/21 04:20:50;;;;;;;24.05;4.72;;;;;;;10.29;71.57;100495.59;5000754;28;20068;-71
2021/05/21 04:23:17;;;;;;;16.73;4.22;;;;;;;10.29;70.80;100495.59;4997167;28;20062;-71
2021/05/21 04:25:45;;;;;;;22.92;4.45;;;;;;;10.31;70.39;100487.53;4999490;28;20072;-73
2021/05/21 04:28:14;;;;;;;21.52;4.13;;;;;;;10.26;70.41;100491.22;4996141;28;20124;-73
2021/05/21 04:30:43;;;;;;;15.98;4.32;;;;;;;10.29;70.86;100483.13;4999571;28;20058;-73
2021/05/21 04:33:10;;;;;;;24.05;5.15;;;;;;;10.28;70.79;100485.84;4998864;28;20069;-73
2021/05/21 04:35:37;;;;;;;21.58;5.32;;;;;;;10.30;70.63;100478.69;4997855;28;20418;-74
2021/05/21 04:38:05;;;;;;;21.27;4.78;;;;;;;10.35;69.47;100451.84;5005008;28;20096;-73
2021/05/21 04:40:32;;;;;;;22.98;4.72;;;;;;;10.45;69.79;100479.91;4997732;28;20062;-72
2021/05/21 04:43:00;;;;;;;20.83;4.65;;;;;;;10.60;69.39;100467.81;4995406;28;20073;-72
2021/05/21 04:45:27;;;;;;;19.80;5.43;;;;;;;10.65;69.31;100466.69;4999770;28;20061;-72
2021/05/21 04:47:55;;;;;;;27.70;5.85;;;;;;;10.67;69.88;100469.31;5001434;28;20085;-72
2021/05/21 04:50:23;;;;;;;20.73;5.00;;;;;;;10.59;70.70;100474.06;4996593;28;20523;-72
2021/05/21 04:52:50;;;;;;;22.23;4.85;;;;;;;10.60;69.62;100462.47;4998732;28;20072;-72
2021/05/21 04:55:17;;;;;;;21.95;5.03;;;;;;;10.59;69.16;100458.94;4996685;28;20448;-74
2021/05/21 04:57:49;;;;;;;29.17;6.70;;;;;;;10.60;69.18;100454.47;5000040;28;20255;-74
2021/05/21 05:00:17;;;;;;;24.63;4.10;;;;;;;10.60;68.77;100451.81;4997783;28;20446;-73
2021/05/21 05:02:45;;;;;;;17.35;4.43;;;;;;;10.62;68.69;100447.28;5001209;28;20068;-73
2021/05/21 05:05:13;;;;;;;21.92;4.78;;;;;;;10.62;68.84;100455.28;4996377;28;20161;-73
2021/05/21 05:07:40;;;;;;;24.50;6.07;;;;;;;10.63;68.01;100439.22;4999957;28;20053;-73
2021/05/21 05:10:09;;;;;;;27.05;5.00;;;;;;;10.63;68.49;100444.56;4998993;28;20424;-74
2021/05/21 05:12:37;;;;;;;22.05;4.68;;;;;;;10.62;68.08;100440.16;4997173;28;20058;-72
2021/05/21 05:15:05;;;;;;;19.65;4.20;;;;;;;10.62;68.30;100442.81;4998552;28;20390;-72
2021/05/21 05:17:33;;;;;;;23.98;5.22;;;;;;;10.62;68.22;100428.59;4995678;28;20093;-72
2021/05/21 05:20:00;;;;;;;32.78;5.85;;;;;;;10.63;67.79;100433.88;4999517;28;20377;-72
2021/05/21 05:22:28;;;;;;;22.00;6.07;;;;;;;10.62;68.24;100429.50;4990826;28;20066;-72
2021/05/21 05:24:57;;;;;;;22.42;4.85;;;;;;;10.67;68.09;100423.94;4999258;28;20066;-72
2021/05/21 05:27:24;;;;;;;17.67;4.18;;;;;;;10.69;67.79;100426.56;4993946;28;20457;-74
2021/05/21 05:29:52;;;;;;;20.25;4.82;;;;;;;10.74;67.02;100420.09;4996186;28;20053;-73
2021/05/21 05:32:20;;;;;;;20.77;5.18;;;;;;;10.81;67.50;100416.28;4994706;28;20545;-73
2021/05/21 05:34:47;;;;;;;34.85;6.10;;;;;;;10.84;67.00;100400.16;4995965;28;20058;-73
2021/05/21 05:37:15;;;;;;;28.75;5.63;;;;;;;10.88;66.94;100416.03;4996769;28;20061;-73
2021/05/21 05:39:44;;;;;;;22.42;5.00;;;;;;;10.90;66.78;100412.38;4995370;28;20088;-73
2021/05/21 05:42:11;;;;;;;24.42;4.50;;;;;;;10.89;66.60;100405.28;4998898;28;20323;-72
2021/05/21 05:44:38;;;;;;;28.85;5.43;;;;;;;10.94;66.19;100407.78;4996927;28;20692;-73
2021/05/21 05:47:06;;;;;;;24.00;3.88;;;;;;;11.60;63.53;100399.69;4998711;28;20065;-73
2021/05/21 05:49:33;;;;;;;21.65;4.72;;;;;;;11.35;64.15;100381.16;4995189;28;20297;-73
2021/05/21 05:52:00;;;;;;;21.92;3.92;;;;;;;11.20;65.21;100409.38;4998798;28;20088;-73
2021/05/21 05:54:27;;;;;;;25.95;4.85;;;;;;;11.12;65.31;100399.03;4994865;28;20062;-73
2021/05/21 05:56:57;;;;;;;23.50;5.72;;;;;;;11.24;65.74;100396.75;4996981;28;21405;-73
2021/05/21 05:59:26;;;;;;;29.02;5.20;;;;;;;11.34;64.99;100390.97;4997161;28;20088;-73
2021/05/21 06:01:54;;;;;;;24.70;4.93;;;;;;;11.39;65.15;100383.63;4997966;28;20310;-73
2021/05/21 06:04:21;;;;;;;24.98;4.70;;;;;;;11.40;64.92;100382.69;4995950;28;20096;-73
2021/05/21 06:06:49;;;;;;;27.92;5.93;;;;;;;11.46;63.56;100402.94;4999186;28;20303;-73
2021/05/21 06:09:16;;;;;;;20.35;4.38;;;;;;;11.51;63.82;100386.69;4998122;28;20073;-72
2021/05/21 06:11:44;;;;;;;24.05;5.03;;;;;;;11.47;63.67;100383.28;4993661;28;20050;-72
2021/05/21 06:14:12;;;;;;;23.73;4.35;;;;;;;11.49;64.16;100386.78;5000682;28;20085;-73
2021/05/21 06:16:42;;;;;;;26.45;6.40;;;;;;;11.42;63.53;100379.09;4996580;28;20227;-73
2021/05/21 06:19:09;;;;;;;24.30;5.03;;;;;;;11.46;63.04;100383.34;4995778;28;20066;-73
2021/05/21 06:21:36;;;;;;;18.17;4.63;;;;;;;11.45;63.03;100385.16;4991267;28;20429;-73
2021/05/21 06:24:04;;;;;;;21.10;5.13;;;;;;;11.42;63.21;100384.44;4992336;28;20066;-73
2021/05/21 06:27:15;;;;;;;28.77;5.22;;;;;;;11.41;63.54;100388.91;4996126;28;20062;-74
2021/05/21 06:29:43;;;;;;;25.92;4.55;;;;;;;11.41;63.54;100380.91;4995518;28;20116;-73
2021/05/21 06:32:10;;;;;;;26.90;5.40;;;;;;;11.42;63.42;100381.75;4992420;28;20054;-73
2021/05/21 06:34:38;;;;;;;25.48;5.20;;;;;;;11.48;63.84;100394.88;4997953;28;20064;-73
2021/05/21 06:37:05;;;;;;;18.23;4.30;;;;;;;11.52;63.51;100397.31;4995551;28;20347;-74
2021/05/21 06:39:32;;;;;;;21.05;4.95;;;;;;;11.53;63.76;100377.69;4995703;28;20062;-73
2021/05/21 06:42:00;;;;;;;22.02;4.97;;;;;;;11.47;63.78;100385.09;4999009;28;20066;-73
2021/05/21 06:44:31;;;;;;;31.48;5.38;;;;;;;11.87;62.43;100368.19;4993485;28;20086;-74
2021/05/21 06:46:59;;;;;;;27.85;5.22;;;;;;;12.01;62.07;100374.75;4999429;28;20073;-72
2021/05/21 06:49:26;;;;;;;14.43;4.63;;;;;;;12.73;60.15;100381.22;4995070;28;20340;-73
2021/05/21 06:51:53;;;;;;;21.80;4.38;;;;;;;12.63;59.81;100375.44;4995938;28;20072;-73
2021/05/21 06:54:21;;;;;;;21.08;4.30;;;;;;;12.50;60.73;100380.50;4991752;28;20066;-74
2021/05/21 06:56:49;;;;;;;29.70;5.63;;;;;;;12.25;60.91;100397.69;4995829;28;20072;-73
2021/05/21 06:59:16;;;;;;;23.30;4.97;;;;;;;12.20;61.49;100381.00;4993156;28;20564;-73
2021/05/21 07:01:45;;;;;;;26.30;5.28;;;;;;;12.31;61.63;100389.41;4995294;28;21078;-73
2021/05/21 07:04:13;;;;;;;26.38;5.30;;;;;;;12.00;65.17;100397.94;4994650;28;20058;-72
2021/05/21 07:06:40;;;;;;;22.30;4.80;;;;;;;11.73;66.31;100389.31;4993079;28;20513;-74
2021/05/21 07:09:07;;;;;;;21.88;5.05;;;;;;;11.80;67.43;100390.81;4996206;28;20061;-74
2021/05/21 07:11:35;;;;;;;16.65;4.97;;;;;;;11.93;66.37;100394.66;4992783;28;20066;-74
2021/05/21 07:14:03;;;;;;;22.55;4.20;;;;;;;11.62;65.81;100397.81;4998448;28;20065;-74
2021/05/21 07:16:30;;;;;;;22.70;5.00;;;;;;;11.55;65.22;100374.97;4994258;28;20157;-73
2021/05/21 07:19:00;;;;;;;20.02;4.80;;;;;;;11.62;64.38;100391.59;4996258;28;20497;-72
2021/05/21 07:21:28;;;;;;;26.35;5.30;;;;;;;11.94;64.36;100380.38;4994252;28;20510;-73
2021/05/21 07:23:56;;;;;;;22.90;5.55;;;;;;;12.04;63.26;100393.34;4997094;28;20062;-72
2021/05/21 07:26:25;;;;;;;19.33;5.03;;;;;;;11.91;62.93;100379.66;4996883;28;20386;-72
2021/05/21 07:28:53;;;;;;;26.65;6.95;;;;;;;12.02;62.96;100397.88;4992763;28;20343;-72
2021/05/21 07:31:21;;;;;;;25.25;5.05;;;;;;;12.06;63.15;100399.50;4997151;28;20724;-71
2021/05/21 07:33:49;;;;;;;25.63;4.90;;;;;;;11.75;67.36;100392.81;4995987;28;20073;-73
2021/05/21 07:36:16;;;;;;;18.45;4.88;;;;;;;11.51;69.49;100397.38;4995187;28;20053;-70
2021/05/21 07:38:44;;;;;;;23.70;5.93;;;;;;;11.31;70.52;100391.09;4995339;28;20058;-71
2021/05/21 07:41:11;;;;;;;24.95;5.80;;;;;;;11.36;71.38;100390.91;4997232;28;20190;-70
2021/05/21 07:43:39;;;;;;;22.00;4.65;;;;;;;11.40;69.19;100398.72;4994155;28;20467;-70
2021/05/21 07:46:07;;;;;;;29.70;5.38;;;;;;;11.54;70.42;100381.22;4992799;28;20261;-70
2021/05/21 07:48:34;;;;;;;29.90;5.10;;;;;;;11.76;67.89;100371.38;4993129;28;20058;-71
2021/05/21 07:51:02;;;;;;;16.88;4.82;;;;;;;11.94;66.73;100376.84;4995611;28;20062;-72
2021/05/21 07:53:33;;;;;;;19.13;4.53;;;;;;;12.00;67.32;100381.03;4996662;28;20072;-70
2021/05/21 07:56:02;;;;;;;19.42;4.53;;;;;;;11.77;67.61;100366.88;4994699;28;20069;-70
2021/05/21 07:58:29;;;;;;;20.35;5.55;;;;;;;11.70;67.56;100362.75;4998021;28;20135;-70
2021/05/21 08:00:57;;;;;;;20.52;4.30;;;;;;;11.61;68.29;100365.81;4994450;28;20095;-71
2021/05/21 08:03:25;;;;;;;20.75;5.65;;;;;;;11.53;67.97;100375.03;4999663;28;20066;-70
2021/05/21 08:05:52;;;;;;;21.67;4.25;;;;;;;11.46;68.23;100367.31;4993581;28;20519;-71
2021/05/21 08:08:21;;;;;;;23.00;5.00;;;;;;;11.32;68.49;100374.16;5001723;28;20062;-71
2021/05/21 08:10:49;;;;;;;14.52;4.20;;;;;;;11.27;68.83;100372.59;4998440;28;21149;-71
2021/05/21 08:13:17;;;;;;;23.55;5.32;;;;;;;11.14;68.90;100382.94;4997844;28;20062;-71
2021/05/21 08:15:44;;;;;;;18.48;4.20;;;;;;;11.21;69.68;100366.56;5002470;28;20375;-72
2021/05/21 08:18:12;;;;;;;16.55;4.47;;;;;;;11.46;68.17;100372.66;4997205;28;20062;-70
2021/05/21 08:20:42;;;;;;;15.82;4.15;;;;;;;11.56;67.67;100384.69;4998096;28;20345;-71
2021/05/21 08:23:10;;;;;;;21.52;5.35;;;;;;;11.50;68.45;100367.13;4999243;28;20139;-71
2021/05/21 08:25:37;;;;;;;14.98;3.65;;;;;;;11.53;68.46;100375.03;5000415;28;20450;-71
2021/05/21 08:28:04;;;;;;;16.33;3.70;;;;;;;11.61;67.98;100373.81;4998603;28;20339;-71
2021/05/21 08:30:32;;;;;;;18.73;4.38;;;;;;;11.66;68.48;100353.97;5000739;28;20302;-71
2021/05/21 08:33:00;;;;;;;25.75;5.45;;;;;;;11.81;67.66;100351.56;4997700;28;20116;-72
2021/05/21 08:35:27;;;;;;;21.73;5.38;;;;;;;12.15;67.26;100356.25;4998863;28;20621;-72
2021/05/21 08:37:54;;;;;;;16.25;4.60;;;;;;;12.69;65.83;100354.59;4992570;28;20144;-72
2021/05/21 08:40:24;;;;;;;23.00;5.60;;;;;;;12.62;65.32;100366.53;4997464;28;20062;-72
2021/05/21 08:42:57;;;;;;;20.88;4.53;;;;;;;12.27;64.25;100360.19;4998883;28;20068;-71
2021/05/21 08:45:28;;;;;;;17.58;6.03;;;;;;;12.05;65.00;100354.97;4994670;28;20069;-72
2021/05/21 08:47:58;;;;;;;27.33;5.15;;;;;;;12.02;65.82;100358.66;4999247;28;20149;-72
2021/05/21 08:50:26;;;;;;;21.10;4.68;;;;;;;12.04;64.87;100351.44;4990402;28;20429;-72
2021/05/21 08:52:53;;;;;;;25.10;6.05;;;;;;;12.19;64.68;100351.63;5000244;28;20376;-73
2021/05/21 08:55:20;;;;;;;20.08;5.38;;;;;;;12.09;64.44;100361.91;4995260;28;20054;-73
2021/05/21 08:57:48;;;;;;;22.77;5.18;;;;;;;12.14;65.27;100366.09;5002850;28;20092;-72
2021/05/21 09:00:16;;;;;;;17.98;4.60;;;;;;;12.09;64.69;100365.44;4994018;28;20058;-73
2021/05/21 09:02:43;;;;;;;20.27;4.55;;;;;;;12.18;64.29;100365.97;5003339;28;20066;-72
2021/05/21 09:05:12;;;;;;;20.60;4.82;;;;;;;12.24;65.06;100371.03;4996135;28;20065;-72
2021/05/21 09:07:41;;;;;;;17.30;4.20;;;;;;;12.07;65.12;100361.09;5002882;28;20064;-72
2021/05/21 09:10:11;;;;;;;21.90;4.90;;;;;;;12.25;65.08;100378.13;4996673;28;20243;-73
2021/05/21 09:12:41;;;;;;;18.42;4.97;;;;;;;13.12;62.20;100365.00;4998902;28;21628;-73
2021/05/21 09:15:12;;;;;;;20.08;5.18;;;;;;;13.66;60.69;100356.91;4995308;28;20061;-73
2021/05/21 09:17:54;;;;;;;20.08;4.75;;;;;;;13.74;58.93;100359.19;4999489;28;20068;-73
2021/05/21 09:20:28;;;;;;;20.63;5.13;;;;;;;13.43;60.74;100353.63;4997009;28;20062;-72
2021/05/21 09:23:05;;;;;;;19.30;4.28;;;;;;;13.42;61.37;100359.94;5000363;28;20058;-73
2021/05/21 09:25:43;;;;;;;23.88;5.25;;;;;;;13.93;60.12;100349.22;4998754;28;20511;-73
2021/05/21 09:28:34;;;;;;;32.17;5.70;;;;;;;13.80;58.81;100358.88;5000452;28;20058;-73
2021/05/21 09:31:07;;;;;;;16.92;4.47;;;;;;;14.13;57.91;100340.09;4999053;28;20066;-72
2021/05/21 09:33:36;;;;;;;27.55;4.18;;;;;;;13.96;56.51;100345.50;4996928;28;20073;-73
2021/05/21 09:36:05;;;;;;;20.80;4.93;;;;;;;13.60;57.45;100343.81;4999608;28;20080;-73
2021/05/21 09:38:33;;;;;;;28.48;4.63;;;;;;;13.71;55.77;100335.25;4993981;28;20180;-73
2021/05/21 09:41:07;;;;;;;22.25;4.40;;;;;;;14.10;55.50;100328.69;4998886;28;20062;-73
2021/05/21 09:43:34;;;;;;;;;;;;;;;14.29;54.50;100333.88;4996141;28;20503;-73
2021/05/21 09:46:08;;;;;;;31.05;5.68;;;;;;;15.04;54.33;100331.44;4999224;28;20373;-71
2021/05/21 09:48:35;;;;;;;20.80;4.68;;;;;;;15.29;53.14;100318.28;4995989;28;20558;-72
2021/05/21 09:51:04;;;;;;;19.77;4.78;;;;;;;15.50;51.85;100324.16;4998633;28;20073;-72
2021/05/21 09:53:33;;;;;;;16.38;4.75;;;;;;;15.83;49.69;100332.97;4996459;28;20175;-71
2021/05/21 09:56:03;;;;;;;24.55;5.68;;;;;;;14.75;51.72;100299.94;5000265;28;20327;-72
2021/05/21 09:58:47;;;;;;;16.85;3.83;;;;;;;14.48;53.71;100317.63;4996881;28;20057;-73
2021/05/21 10:01:16;;;;;;;24.60;5.22;;;;;;;14.17;55.07;100332.75;4997070;28;20057;-74
2021/05/21 10:03:45;;;;;;;13.13;3.05;;;;;;;15.19;54.13;100332.34;4994704;28;20510;-73
2021/05/21 10:06:14;;;;;;;22.42;4.75;;;;;;;14.85;52.86;100331.66;4997089;28;20068;-73
2021/05/21 10:08:44;;;;;;;18.25;3.75;;;;;;;15.62;52.75;100340.53;4999825;28;20054;-72
2021/05/21 10:11:12;;;;;;;18.20;5.65;;;;;;;15.51;51.71;100311.63;4995734;28;20149;-72
2021/05/21 10:13:42;;;;;;;23.95;4.20;;;;;;;15.59;50.32;100306.59;4995250;28;20063;-73
2021/05/21 10:16:11;;;;;;;21.63;4.35;;;;;;;15.59;52.19;100327.25;4992300;28;20062;-72
2021/05/21 10:18:42;;;;;;;21.88;4.60;;;;;;;14.88;52.62;100321.59;4995040;28;20064;-73
2021/05/21 10:21:11;;;;;;;20.83;4.82;;;;;;;14.61;55.85;100336.59;4993620;28;20053;-72
2021/05/21 10:23:42;;;;;;;21.58;5.25;;;;;;;14.29;55.35;100339.25;4995453;28;20073;-72
2021/05/21 10:26:13;;;;;;;19.50;5.45;;;;;;;14.74;53.73;100337.63;4994610;28;20089;-73
2021/05/21 10:28:43;;;;;;;19.48;4.47;;;;;;;14.41;53.62;100322.47;5000048;28;20053;-72
2021/05/21 10:31:13;;;;;;;30.60;4.97;;;;;;;14.49;53.89;100333.63;4992596;28;20116;-71
2021/05/21 10:33:43;;;;;;;29.60;5.25;;;;;;;14.22;54.36;100321.75;4999731;28;20169;-73
2021/05/21 10:36:31;;;;;;;19.80;4.70;;;;;;;14.22;54.29;100325.31;4997552;28;20062;-71
2021/05/21 10:39:05;;;;;;;16.45;4.10;;;;;;;14.83;53.54;100325.47;4996362;28;20614;-72
2021/05/21 10:41:33;;;;;;;16.05;4.00;;;;;;;14.50;53.55;100324.63;4997025;28;20463;-72
2021/05/21 10:44:00;;;;;;;18.15;4.50;;;;;;;14.78;53.37;100328.47;4998086;28;20061;-71
2021/05/21 10:46:28;;;;;;;28.83;5.03;;;;;;;15.48;52.02;100309.09;4996651;28;20065;-72
2021/05/21 10:48:59;;;;;;;16.17;3.75;;;;;;;14.63;52.69;100308.72;4997103;28;20055;-71
2021/05/21 10:51:28;;;;;;;20.55;4.50;;;;;;;14.75;53.60;100299.09;4994604;28;20057;-72
2021/05/21 10:54:26;;;;;;;16.58;3.75;;;;;;;14.97;53.24;100324.72;4992537;28;20296;-72
2021/05/21 10:56:55;;;;;;;19.60;4.78;;;;;;;14.82;52.58;100315.72;4996617;28;20054;-72
2021/05/21 10:59:55;;;;;;;13.30;3.67;;;;;;;14.58;53.34;100316.13;4989879;28;20069;-72
2021/05/21 11:02:24;;;;;;;18.65;3.67;;;;;;;14.67;53.03;100322.81;5000181;28;20069;-72
2021/05/21 11:04:53;;;;;;;18.33;3.53;;;;;;;15.09;51.00;100321.28;4993102;28;20093;-72
2021/05/21 11:07:34;;;;;;;15.98;4.00;;;;;;;15.09;50.85;100313.22;5000327;28;20092;-72
2021/05/21 11:10:03;;;;;;;15.75;3.78;;;;;;;14.70;51.67;100285.91;4993510;28;20193;-72
2021/05/21 11:12:44;;;;;;;18.50;3.45;;;;;;;14.87;50.67;100302.88;5000322;28;20531;-72
2021/05/21 11:15:36;;;;;;;16.48;4.75;;;;;;;14.88;50.35;100300.13;4994796;28;20516;-72
2021/05/21 11:18:27;;;;;;;19.55;3.50;;;;;;;14.90;50.84;100291.97;4993182;28;20065;-72
2021/05/21 11:20:57;;;;;;;15.15;3.70;;;;;;;15.05;50.75;100293.75;4993218;28;20066;-73
2021/05/21 11:23:27;;;;;;;15.98;3.65;;;;;;;14.94;50.75;100296.19;4998229;28;20362;-73
2021/05/21 11:26:06;;;;;;;23.60;3.88;;;;;;;15.31;51.11;100283.25;4998242;28;20145;-72
2021/05/21 11:28:39;;;;;;;13.02;3.72;;;;;;;15.13;50.73;100271.78;4996728;28;20076;-72